DNKA

Kaduna Airport

Kaduna, Nigeria
TAF DNKA 162130Z 1700/1806 07007KT CAVOK
Issued Valid From Valid To
Jan-16 @ 21:30 UTC
(8 hours ago)
Jan-17 @ 00:00 UTC
(6 hours ago)
Jan-18 @ 06:00 UTC
(in 24 hours)
Jan-17 @ 00:00 to Jan-18 @ 06:00
TAF DNKA 162130Z 1700/1806 07007KT CAVOK
Wind Visibility Clouds Conditions
70° at 7 knots 10,000+ meters
  • No significant clouds
TAF DNKA 162130Z 1700/1806 07007KT CAVOK
Issued Jan-16 @ 21:30 UTC
(8 hours ago)
Valid From Jan-17 @ 00:00 UTC
(6 hours ago)
Valid To Jan-18 @ 06:00 UTC
(in 24 hours)
Jan-17 @ 00:00 - Jan-18 @ 06:00
Wind Visibility
70° at 7 knots 10,000+ meters
Clouds
  • No significant clouds
Conditions